Terminal Aerodrome Forecast
Issued by NWS Sterling, VA

Current Version | Previous Version | Text Only | Print | Product List | Glossary On
Versions: 1 2 3 4 5 6 7 8 9 10 11 12 13 14 15 16 17 18 19 20
000
FTUS41 KLWX 270000 AAA
TAFIAD
TAF AMD
KIAD 270005Z 2700/2806 VRB03KT P6SM SKC
     FM271500 00000KT P6SM FEW050
     FM280000 VRB03KT P6SM SCT250
     FM280400 33007KT P6SM SCT250=

USA.gov is the U.S. government's official web portal to all federal, state and local government web resources and services.